createdAt,value
2018-04-27T00:00:15.158Z,11.12
2018-04-27T00:01:15.191Z,11.12
2018-04-27T00:02:15.167Z,11.06
2018-04-27T00:03:15.214Z,11.06
2018-04-27T00:04:15.180Z,11.06
2018-04-27T00:05:15.193Z,11.06
2018-04-27T00:06:15.195Z,11.06
2018-04-27T00:07:15.173Z,11.06
2018-04-27T00:08:15.192Z,10.94
2018-04-27T00:09:15.239Z,10.94
2018-04-27T00:10:15.162Z,10.94
2018-04-27T00:11:15.176Z,10.94
2018-04-27T00:12:15.235Z,10.94
2018-04-27T00:13:15.162Z,10.94
2018-04-27T00:14:15.221Z,10.88
2018-04-27T00:15:15.164Z,10.94
2018-04-27T00:16:15.175Z,10.88
2018-04-27T00:17:15.235Z,10.88
2018-04-27T00:18:15.179Z,10.88
2018-04-27T00:19:15.355Z,10.81
2018-04-27T00:20:15.227Z,10.88
2018-04-27T00:21:15.219Z,10.81
2018-04-27T00:22:15.190Z,10.88
2018-04-27T00:23:15.208Z,10.88
2018-04-27T00:24:15.204Z,10.88
2018-04-27T00:25:15.184Z,10.88
2018-04-27T00:26:15.200Z,10.88
2018-04-27T00:27:15.156Z,10.88
2018-04-27T00:28:15.202Z,10.88
2018-04-27T00:29:15.179Z,10.88
2018-04-27T00:30:15.179Z,10.88
2018-04-27T00:31:15.176Z,10.88
2018-04-27T00:32:15.178Z,10.88
2018-04-27T00:33:15.343Z,10.88
2018-04-27T00:34:15.678Z,10.88
2018-04-27T00:35:15.178Z,10.88
2018-04-27T00:36:15.197Z,10.81
2018-04-27T00:37:15.187Z,10.75
2018-04-27T00:38:15.169Z,10.75
2018-04-27T00:39:15.190Z,10.75
2018-04-27T00:40:15.199Z,10.69
2018-04-27T00:41:15.181Z,10.69
2018-04-27T00:42:15.222Z,10.69
2018-04-27T00:43:15.439Z,10.63
2018-04-27T00:44:15.202Z,10.63
2018-04-27T00:45:15.192Z,10.56
2018-04-27T00:46:15.204Z,10.56
2018-04-27T00:47:15.207Z,10.56
2018-04-27T00:48:15.219Z,10.56
2018-04-27T00:49:15.200Z,10.56
2018-04-27T00:50:15.315Z,10.5
2018-04-27T00:51:15.214Z,10.5
2018-04-27T00:52:15.191Z,10.44
2018-04-27T00:53:15.218Z,10.5
2018-04-27T00:54:15.184Z,10.5
2018-04-27T00:55:15.186Z,10.5
2018-04-27T00:56:15.242Z,10.44
2018-04-27T00:57:15.236Z,10.44
2018-04-27T00:58:15.234Z,10.5
2018-04-27T00:59:15.241Z,10.44
2018-04-27T01:00:15.194Z,10.44
2018-04-27T01:01:15.200Z,10.44
2018-04-27T01:02:15.197Z,10.44
2018-04-27T01:03:15.239Z,10.44
2018-04-27T01:04:15.202Z,10.44
2018-04-27T01:05:15.203Z,10.5
2018-04-27T01:06:15.185Z,10.44
2018-04-27T01:07:15.193Z,10.44
2018-04-27T01:08:15.229Z,10.44
2018-04-27T01:09:15.215Z,10.44
2018-04-27T01:10:15.218Z,10.44
2018-04-27T01:11:15.249Z,10.44
2018-04-27T01:12:15.237Z,10.44
2018-04-27T01:13:15.277Z,10.38
2018-04-27T01:14:15.213Z,10.38
2018-04-27T01:15:15.190Z,10.38
2018-04-27T01:16:15.236Z,10.31
2018-04-27T01:17:15.202Z,10.31
2018-04-27T01:18:15.182Z,10.31
2018-04-27T01:19:15.194Z,10.31
2018-04-27T01:20:15.203Z,10.31
2018-04-27T01:21:15.266Z,10.31
2018-04-27T01:22:15.227Z,10.31
2018-04-27T01:23:15.229Z,10.31
2018-04-27T01:24:15.208Z,10.31
2018-04-27T01:25:15.215Z,10.25
2018-04-27T01:26:15.283Z,10.25
2018-04-27T01:27:15.231Z,10.25
2018-04-27T01:28:15.869Z,10.25
2018-04-27T01:29:15.223Z,10.25
2018-04-27T01:30:15.209Z,10.19
2018-04-27T01:31:15.237Z,10.25
2018-04-27T01:32:15.232Z,10.19
2018-04-27T01:33:15.269Z,10.25
2018-04-27T01:34:15.202Z,10.19
2018-04-27T01:35:15.246Z,10.19
2018-04-27T01:36:15.212Z,10.19
2018-04-27T01:37:15.229Z,10.19
2018-04-27T01:38:15.224Z,10.19
2018-04-27T01:39:15.536Z,10.19
2018-04-27T01:40:15.207Z,10.19
2018-04-27T01:41:15.223Z,10.19
2018-04-27T01:42:15.254Z,10.13
2018-04-27T01:43:15.215Z,10.13
2018-04-27T01:44:15.269Z,10.13
2018-04-27T01:45:15.230Z,10.13
2018-04-27T01:46:15.238Z,10.06
2018-04-27T01:47:15.209Z,10.06
2018-04-27T01:48:15.229Z,10.13
2018-04-27T01:49:15.251Z,10.13
2018-04-27T01:50:15.208Z,10.13
2018-04-27T01:51:15.221Z,10.06
2018-04-27T01:52:15.228Z,10.06
2018-04-27T01:53:15.221Z,10.06
2018-04-27T01:54:15.589Z,10.06
2018-04-27T01:55:15.361Z,10.06
2018-04-27T01:56:15.241Z,10.06
2018-04-27T01:57:15.221Z,10.06
2018-04-27T01:58:15.215Z,10
2018-04-27T01:59:15.239Z,10
2018-04-27T02:00:15.229Z,9.94
2018-04-27T02:01:15.231Z,9.88
2018-04-27T02:02:15.230Z,9.88
2018-04-27T02:03:15.238Z,9.81
2018-04-27T02:04:15.490Z,9.81
2018-04-27T02:05:15.233Z,9.81
2018-04-27T02:06:15.245Z,9.81
2018-04-27T02:07:15.308Z,9.75
2018-04-27T02:08:15.224Z,9.69
2018-04-27T02:09:15.334Z,9.75
2018-04-27T02:10:15.251Z,9.75
2018-04-27T02:11:15.272Z,9.75
2018-04-27T02:12:15.238Z,9.69
2018-04-27T02:13:15.252Z,9.75
2018-04-27T02:14:15.242Z,9.69
2018-04-27T02:15:15.217Z,9.69
2018-04-27T02:16:15.236Z,9.69
2018-04-27T02:17:15.253Z,9.63
2018-04-27T02:18:15.256Z,9.63
2018-04-27T02:19:15.255Z,9.56
2018-04-27T02:20:15.221Z,9.63
2018-04-27T02:21:15.242Z,9.63
2018-04-27T02:22:15.227Z,9.63
2018-04-27T02:23:15.249Z,9.56
2018-04-27T02:24:15.267Z,9.63
2018-04-27T02:25:15.250Z,9.63
2018-04-27T02:26:15.231Z,9.56
2018-04-27T02:27:15.226Z,9.56
2018-04-27T02:28:15.240Z,9.56
2018-04-27T02:29:15.276Z,9.56
2018-04-27T02:30:15.278Z,9.56
2018-04-27T02:31:15.267Z,9.5
2018-04-27T02:32:15.232Z,9.56
2018-04-27T02:33:15.223Z,9.56
2018-04-27T02:34:15.245Z,9.56
2018-04-27T02:35:15.305Z,9.56
2018-04-27T02:36:15.225Z,9.5
2018-04-27T02:37:15.233Z,9.56
2018-04-27T02:38:15.248Z,9.56
2018-04-27T02:39:15.622Z,9.56
2018-04-27T02:40:15.246Z,9.56
2018-04-27T02:41:15.261Z,9.5
2018-04-27T02:42:15.310Z,9.5
2018-04-27T02:43:15.380Z,9.5
2018-04-27T02:44:15.326Z,9.5
2018-04-27T02:45:15.255Z,9.44
2018-04-27T02:46:15.293Z,9.44
2018-04-27T02:47:15.259Z,9.44
2018-04-27T02:48:15.280Z,9.44
2018-04-27T02:49:15.255Z,9.44
2018-04-27T02:50:15.252Z,9.38
2018-04-27T02:51:15.241Z,9.38
2018-04-27T02:52:15.244Z,9.38
2018-04-27T02:53:15.282Z,9.38
2018-04-27T02:54:15.301Z,9.38
2018-04-27T02:55:15.228Z,9.44
2018-04-27T02:56:15.254Z,9.44
2018-04-27T02:57:15.282Z,9.38
2018-04-27T02:58:15.269Z,9.38
2018-04-27T02:59:15.270Z,9.38
2018-04-27T03:00:15.345Z,9.38
2018-04-27T03:01:15.234Z,9.31
2018-04-27T03:02:15.269Z,9.31
2018-04-27T03:03:15.255Z,9.31
2018-04-27T03:04:15.284Z,9.25
2018-04-27T03:05:15.286Z,9.25
2018-04-27T03:06:15.235Z,9.25
2018-04-27T03:07:15.252Z,9.31
2018-04-27T03:08:15.244Z,9.25
2018-04-27T03:09:15.252Z,9.25
2018-04-27T03:10:15.237Z,9.25
2018-04-27T03:11:15.237Z,9.25
2018-04-27T03:12:15.313Z,9.19
2018-04-27T03:13:15.273Z,9.19
2018-04-27T03:14:15.437Z,9.19
2018-04-27T03:15:15.263Z,9.19
2018-04-27T03:16:15.275Z,9.13
2018-04-27T03:17:15.334Z,9.13
2018-04-27T03:18:15.253Z,9.06
2018-04-27T03:19:15.297Z,9.13
2018-04-27T03:20:15.255Z,9.13
2018-04-27T03:21:15.259Z,9.19
2018-04-27T03:22:15.267Z,9.13
2018-04-27T03:23:15.230Z,9.13
2018-04-27T03:24:15.432Z,9.19
2018-04-27T03:25:15.240Z,9.13
2018-04-27T03:26:15.271Z,9.19
2018-04-27T03:27:15.272Z,9.19
2018-04-27T03:28:15.275Z,9.19
2018-04-27T03:29:15.347Z,9.19
2018-04-27T03:30:15.279Z,9.25
2018-04-27T03:31:15.276Z,9.25
2018-04-27T03:32:15.275Z,9.19
2018-04-27T03:33:15.340Z,9.19
2018-04-27T03:34:15.815Z,9.19
2018-04-27T03:35:15.256Z,9.25
2018-04-27T03:36:15.272Z,9.25
2018-04-27T03:37:15.311Z,9.25
2018-04-27T03:38:15.283Z,9.25
2018-04-27T03:39:15.290Z,9.25
2018-04-27T03:40:15.250Z,9.25
2018-04-27T03:41:15.306Z,9.25
2018-04-27T03:42:15.269Z,9.25
2018-04-27T03:43:15.318Z,9.25
2018-04-27T03:44:15.275Z,9.25
2018-04-27T03:45:15.259Z,9.25
2018-04-27T03:46:15.347Z,9.25
2018-04-27T03:47:15.291Z,9.25
2018-04-27T03:48:15.320Z,9.25
2018-04-27T03:49:15.316Z,9.25
2018-04-27T03:50:15.272Z,9.25
2018-04-27T03:51:15.290Z,9.25
2018-04-27T03:52:15.276Z,9.25
2018-04-27T03:53:15.306Z,9.19
2018-04-27T03:54:15.595Z,9.19
2018-04-27T03:55:15.262Z,9.19
2018-04-27T03:56:15.267Z,9.19
2018-04-27T03:57:15.263Z,9.19
2018-04-27T03:58:15.250Z,9.19
2018-04-27T03:59:15.356Z,9.19
2018-04-27T04:00:15.347Z,9.19
2018-04-27T04:01:16.303Z,9.19
2018-04-27T04:02:15.278Z,9.13
2018-04-27T04:03:15.291Z,9.19
2018-04-27T04:04:15.299Z,9.13
2018-04-27T04:05:15.291Z,9.13
2018-04-27T04:06:15.277Z,9.19
2018-04-27T04:07:15.348Z,9.13
2018-04-27T04:08:15.281Z,9.13
2018-04-27T04:09:15.308Z,9.13
2018-04-27T04:10:15.602Z,9.13
2018-04-27T04:11:15.305Z,9.13
2018-04-27T04:12:15.286Z,9.13
2018-04-27T04:13:15.333Z,9.06
2018-04-27T04:14:15.294Z,9.06
2018-04-27T04:15:15.286Z,9.13
2018-04-27T04:16:15.330Z,9.06
2018-04-27T04:17:15.309Z,9.06
2018-04-27T04:18:15.281Z,9.06
2018-04-27T04:19:15.307Z,9.06
2018-04-27T04:20:15.329Z,9.06
2018-04-27T04:21:15.270Z,9.06
2018-04-27T04:22:15.370Z,9.06
2018-04-27T04:23:15.299Z,9.06
2018-04-27T04:24:15.288Z,9.06
2018-04-27T04:25:15.292Z,9.06
2018-04-27T04:26:15.307Z,9
2018-04-27T04:27:15.285Z,9
2018-04-27T04:28:15.349Z,9.06
2018-04-27T04:29:15.321Z,9.06
2018-04-27T04:30:15.269Z,9
2018-04-27T04:31:15.368Z,9.06
2018-04-27T04:32:15.721Z,9
2018-04-27T04:33:15.288Z,9
2018-04-27T04:34:15.292Z,9
2018-04-27T04:35:15.308Z,9
2018-04-27T04:36:15.310Z,9.06
2018-04-27T04:37:15.333Z,9
2018-04-27T04:38:15.604Z,9
2018-04-27T04:39:15.302Z,9
2018-04-27T04:40:15.298Z,9
2018-04-27T04:41:15.284Z,9
2018-04-27T04:42:15.310Z,9.06
2018-04-27T04:43:15.315Z,9
2018-04-27T04:44:15.319Z,9
2018-04-27T04:45:15.279Z,9
2018-04-27T04:46:15.300Z,9
2018-04-27T04:47:15.420Z,9
2018-04-27T04:48:15.290Z,8.94
2018-04-27T04:49:15.283Z,9
2018-04-27T04:50:15.297Z,8.94
2018-04-27T04:51:15.293Z,8.94
2018-04-27T04:52:15.300Z,8.94
2018-04-27T04:53:15.315Z,8.94
2018-04-27T04:54:15.290Z,8.94
2018-04-27T04:55:15.295Z,8.88
2018-04-27T04:56:15.291Z,8.88
2018-04-27T04:57:15.298Z,8.88
2018-04-27T04:58:15.290Z,8.81
2018-04-27T04:59:15.312Z,8.81
2018-04-27T05:00:15.300Z,8.81
2018-04-27T05:01:15.291Z,8.81
2018-04-27T05:02:15.292Z,8.81
2018-04-27T05:03:15.290Z,8.81
2018-04-27T05:04:15.272Z,8.81
2018-04-27T05:05:15.290Z,8.75
2018-04-27T05:06:15.291Z,8.81
2018-04-27T05:07:15.301Z,8.75
2018-04-27T05:08:15.859Z,8.75
2018-04-27T05:09:15.281Z,8.75
2018-04-27T05:10:15.276Z,8.75
2018-04-27T05:11:15.294Z,8.75
2018-04-27T05:12:15.312Z,8.75
2018-04-27T05:13:15.325Z,8.81
2018-04-27T05:14:15.324Z,8.81
2018-04-27T05:15:15.280Z,8.81
2018-04-27T05:16:15.300Z,8.81
2018-04-27T05:17:15.308Z,8.88
2018-04-27T05:18:15.300Z,8.88
2018-04-27T05:19:15.324Z,8.88
2018-04-27T05:20:15.364Z,8.88
2018-04-27T05:21:15.342Z,8.88
2018-04-27T05:22:15.305Z,8.88
2018-04-27T05:23:15.295Z,8.88
2018-04-27T05:24:16.071Z,9
2018-04-27T05:25:15.314Z,8.94
2018-04-27T05:26:15.311Z,9
2018-04-27T05:27:15.361Z,9
2018-04-27T05:28:15.278Z,9
2018-04-27T05:29:15.328Z,9.06
2018-04-27T05:30:15.295Z,9
2018-04-27T05:31:15.326Z,9.06
2018-04-27T05:32:15.326Z,9.06
2018-04-27T05:33:15.333Z,9.06
2018-04-27T05:34:15.308Z,9.13
2018-04-27T05:35:15.302Z,9.13
2018-04-27T05:36:15.312Z,9.19
2018-04-27T05:37:15.329Z,9.19
2018-04-27T05:38:15.326Z,9.25
2018-04-27T05:39:15.292Z,9.25
2018-04-27T05:40:15.304Z,9.25
2018-04-27T05:41:15.319Z,9.25
2018-04-27T05:42:15.373Z,9.31
2018-04-27T05:43:15.334Z,9.31
2018-04-27T05:44:15.292Z,9.31
2018-04-27T05:45:15.295Z,9.38
2018-04-27T05:46:15.316Z,9.38
2018-04-27T05:47:15.318Z,9.44
2018-04-27T05:48:15.931Z,9.44
2018-04-27T05:49:15.319Z,9.44
2018-04-27T05:50:15.298Z,9.5
2018-04-27T05:51:15.312Z,9.5
2018-04-27T05:52:15.320Z,9.5
2018-04-27T05:53:15.308Z,9.5
2018-04-27T05:54:15.354Z,9.5
2018-04-27T05:55:15.331Z,9.56
2018-04-27T05:56:15.335Z,9.56
2018-04-27T05:57:15.330Z,9.63
2018-04-27T05:58:15.326Z,9.63
2018-04-27T05:59:15.641Z,9.69
2018-04-27T06:00:15.310Z,9.63
2018-04-27T06:01:15.429Z,9.69
2018-04-27T06:02:15.323Z,9.75
2018-04-27T06:03:15.305Z,9.75
2018-04-27T06:04:15.328Z,9.75
2018-04-27T06:05:15.299Z,9.75
2018-04-27T06:06:15.310Z,9.88
2018-04-27T06:07:15.336Z,9.81
2018-04-27T06:08:15.306Z,9.81
2018-04-27T06:09:15.374Z,9.88
2018-04-27T06:10:15.312Z,9.88
2018-04-27T06:11:15.340Z,9.88
2018-04-27T06:12:15.314Z,9.88
2018-04-27T06:13:15.348Z,9.94
2018-04-27T06:14:15.323Z,10
2018-04-27T06:15:15.320Z,10
2018-04-27T06:16:15.339Z,10
2018-04-27T06:17:15.334Z,10.06
2018-04-27T06:18:15.354Z,10.06
2018-04-27T06:19:15.374Z,10.06
2018-04-27T06:20:15.323Z,10.06
2018-04-27T06:21:15.406Z,10.13
2018-04-27T06:22:15.417Z,10.13
2018-04-27T06:23:15.344Z,10.19
2018-04-27T06:24:15.340Z,10.19
2018-04-27T06:25:15.359Z,10.25
2018-04-27T06:26:15.509Z,10.19
2018-04-27T06:27:15.376Z,10.25
2018-04-27T06:28:15.301Z,10.25
2018-04-27T06:29:15.352Z,10.25
2018-04-27T06:30:15.313Z,10.31
2018-04-27T06:31:15.330Z,10.25
2018-04-27T06:32:15.369Z,10.31
2018-04-27T06:33:15.393Z,10.25
2018-04-27T06:34:15.365Z,10.31
2018-04-27T06:35:15.357Z,10.38
2018-04-27T06:36:15.367Z,10.38
2018-04-27T06:37:15.343Z,10.44
2018-04-27T06:38:15.348Z,10.44
2018-04-27T06:39:15.356Z,10.5
2018-04-27T06:40:15.353Z,10.5
2018-04-27T06:41:15.335Z,10.56
2018-04-27T06:42:15.349Z,10.63
2018-04-27T06:43:15.372Z,10.63
2018-04-27T06:44:15.454Z,10.63
2018-04-27T06:45:15.393Z,10.63
2018-04-27T06:46:15.675Z,10.69
2018-04-27T06:47:15.336Z,10.69
2018-04-27T06:48:15.344Z,10.75
2018-04-27T06:49:15.349Z,10.75
2018-04-27T06:50:15.330Z,10.75
2018-04-27T06:51:15.383Z,10.81
2018-04-27T06:52:15.342Z,10.81
2018-04-27T06:53:15.333Z,10.88
2018-04-27T06:54:15.362Z,10.88
2018-04-27T06:55:15.340Z,10.88
2018-04-27T06:56:15.338Z,10.94
2018-04-27T06:57:15.376Z,10.94
2018-04-27T06:58:15.364Z,10.94
2018-04-27T06:59:16.547Z,10.94
2018-04-27T07:00:15.377Z,11
2018-04-27T07:01:15.350Z,11
2018-04-27T07:02:15.341Z,11.06
2018-04-27T07:03:16.169Z,11.06
2018-04-27T07:04:15.344Z,11.12
2018-04-27T07:05:16.274Z,11.19
2018-04-27T07:06:15.503Z,11.19
2018-04-27T07:07:15.348Z,11.12
2018-04-27T07:08:15.353Z,11.12
2018-04-27T07:09:15.436Z,11.12
2018-04-27T07:10:15.787Z,11.19
2018-04-27T07:11:15.377Z,11.19
2018-04-27T07:12:15.352Z,11.19
2018-04-27T07:13:15.510Z,11.25
2018-04-27T07:14:15.350Z,11.25
2018-04-27T07:15:15.377Z,11.31
2018-04-27T07:16:15.347Z,11.31
2018-04-27T07:17:15.351Z,11.38
2018-04-27T07:18:15.373Z,11.38
2018-04-27T07:19:15.388Z,11.44
2018-04-27T07:20:15.381Z,11.5
2018-04-27T07:21:15.382Z,11.5
2018-04-27T07:22:15.363Z,11.56
2018-04-27T07:23:15.363Z,11.56
2018-04-27T07:24:15.405Z,11.63
2018-04-27T07:25:15.378Z,11.69
2018-04-27T07:26:15.372Z,11.69
2018-04-27T07:27:15.398Z,11.75
2018-04-27T07:28:15.376Z,11.75
2018-04-27T07:29:15.436Z,11.81
2018-04-27T07:30:15.373Z,11.81
2018-04-27T07:31:15.430Z,11.88
2018-04-27T07:32:15.368Z,11.94
2018-04-27T07:33:15.360Z,11.94
2018-04-27T07:34:16.133Z,12
2018-04-27T07:35:15.376Z,12
2018-04-27T07:36:15.393Z,12.06
2018-04-27T07:37:15.381Z,12.13
2018-04-27T07:38:15.364Z,12.13
2018-04-27T07:39:15.391Z,12.25
2018-04-27T07:40:15.355Z,12.25
2018-04-27T07:41:15.381Z,12.31
2018-04-27T07:42:15.374Z,12.37
2018-04-27T07:43:15.384Z,12.37
2018-04-27T07:44:15.437Z,12.37
2018-04-27T07:45:15.989Z,12.37
2018-04-27T07:46:15.426Z,12.37
2018-04-27T07:47:15.409Z,12.44
2018-04-27T07:48:15.420Z,12.5
2018-04-27T07:49:15.398Z,12.5
2018-04-27T07:50:15.364Z,12.5
2018-04-27T07:51:15.576Z,12.56
2018-04-27T07:52:15.366Z,12.56
2018-04-27T07:53:15.385Z,12.63
2018-04-27T07:54:15.812Z,12.63
2018-04-27T07:55:15.535Z,12.63
2018-04-27T07:56:15.390Z,12.69
2018-04-27T07:57:15.570Z,12.69
2018-04-27T07:58:15.360Z,12.81
2018-04-27T07:59:15.387Z,12.81
2018-04-27T08:00:15.389Z,12.88
2018-04-27T08:01:15.401Z,12.88
2018-04-27T08:02:16.192Z,12.88
2018-04-27T08:03:15.380Z,12.88
2018-04-27T08:04:15.729Z,13
2018-04-27T08:05:15.365Z,13
2018-04-27T08:06:15.352Z,13.06
2018-04-27T08:07:16.126Z,13.13
2018-04-27T08:08:15.815Z,13.19
2018-04-27T08:09:15.406Z,13.13
2018-04-27T08:10:15.363Z,13.19
2018-04-27T08:11:15.862Z,13.13
2018-04-27T08:12:15.359Z,13.19
2018-04-27T08:13:15.397Z,13.31
2018-04-27T08:14:15.405Z,13.31
2018-04-27T08:15:15.398Z,13.38
2018-04-27T08:16:15.345Z,13.38
2018-04-27T08:17:15.373Z,13.44
2018-04-27T08:18:15.413Z,13.44
2018-04-27T08:19:15.402Z,13.5
2018-04-27T08:20:15.356Z,13.56
2018-04-27T08:21:15.388Z,13.56
2018-04-27T08:22:15.391Z,13.62
2018-04-27T08:23:15.340Z,13.69
2018-04-27T08:24:15.813Z,13.75
2018-04-27T08:25:15.346Z,13.81
2018-04-27T08:26:15.385Z,13.81
2018-04-27T08:27:15.358Z,13.88
2018-04-27T08:28:15.369Z,13.94
2018-04-27T08:29:15.407Z,13.94
2018-04-27T08:30:15.861Z,13.94
2018-04-27T08:31:15.388Z,13.94
2018-04-27T08:32:15.388Z,14
2018-04-27T08:33:15.439Z,14
2018-04-27T08:34:15.565Z,14.06
2018-04-27T08:35:15.412Z,14.19
2018-04-27T08:36:15.950Z,14.25
2018-04-27T08:37:15.448Z,14.31
2018-04-27T08:38:18.061Z,14.31
2018-04-27T08:39:15.410Z,14.31
2018-04-27T08:40:15.404Z,14.38
2018-04-27T08:41:15.390Z,14.38
2018-04-27T08:42:15.426Z,14.5
2018-04-27T08:43:15.388Z,14.56
2018-04-27T08:44:15.416Z,14.56
2018-04-27T08:45:15.426Z,14.69
2018-04-27T08:46:15.377Z,14.69
2018-04-27T08:47:15.468Z,14.75
2018-04-27T08:48:15.403Z,14.69
2018-04-27T08:49:15.404Z,14.75
2018-04-27T08:50:15.389Z,14.75
2018-04-27T08:51:15.365Z,14.81
2018-04-27T08:52:15.391Z,14.81
2018-04-27T08:53:15.394Z,14.75
2018-04-27T08:54:15.731Z,14.75
2018-04-27T08:55:15.400Z,14.81
2018-04-27T08:56:15.392Z,14.87
2018-04-27T08:57:15.383Z,14.87
2018-04-27T08:58:15.417Z,14.87
2018-04-27T08:59:15.450Z,15
2018-04-27T09:00:15.921Z,15.06
2018-04-27T09:01:15.411Z,15.06
2018-04-27T09:02:15.400Z,15.13
2018-04-27T09:03:15.432Z,15.25
2018-04-27T09:04:15.387Z,15.25
2018-04-27T09:05:15.394Z,15.31
2018-04-27T09:06:16.026Z,15.31
2018-04-27T09:07:15.394Z,15.38
2018-04-27T09:08:15.513Z,15.31
2018-04-27T09:09:15.400Z,15.38
2018-04-27T09:10:15.390Z,15.44
2018-04-27T09:11:15.397Z,15.5
2018-04-27T09:12:15.407Z,15.5
2018-04-27T09:13:15.402Z,15.56
2018-04-27T09:14:15.457Z,15.56
2018-04-27T09:15:15.568Z,15.56
2018-04-27T09:16:16.052Z,15.56
2018-04-27T09:17:15.408Z,15.63
2018-04-27T09:18:15.409Z,15.63
2018-04-27T09:19:15.415Z,15.63
2018-04-27T09:20:15.425Z,15.69
2018-04-27T09:21:15.391Z,15.63
2018-04-27T09:22:15.437Z,15.69
2018-04-27T09:23:15.409Z,15.69
2018-04-27T09:24:15.424Z,15.75
2018-04-27T09:25:15.419Z,15.75
2018-04-27T09:26:15.465Z,15.75
2018-04-27T09:27:15.448Z,15.81
2018-04-27T09:28:15.421Z,15.81
2018-04-27T09:29:15.423Z,15.88
2018-04-27T09:30:15.413Z,15.94
2018-04-27T09:31:15.444Z,16
2018-04-27T09:32:15.957Z,16
2018-04-27T09:33:15.411Z,16
2018-04-27T09:34:15.422Z,16.06
2018-04-27T09:35:15.424Z,16.12
2018-04-27T09:36:15.425Z,16.19
2018-04-27T09:37:15.400Z,16.25
2018-04-27T09:38:15.406Z,16.25
2018-04-27T09:39:15.429Z,16.31
2018-04-27T09:40:15.487Z,16.37
2018-04-27T09:41:15.404Z,16.31
2018-04-27T09:42:15.391Z,16.37
2018-04-27T09:43:15.406Z,16.37
2018-04-27T09:44:15.435Z,16.37
2018-04-27T09:45:15.422Z,16.44
2018-04-27T09:46:15.493Z,16.44
2018-04-27T09:47:15.445Z,16.5
2018-04-27T09:48:15.402Z,16.5
2018-04-27T09:49:15.425Z,16.5
2018-04-27T09:50:15.810Z,16.5
2018-04-27T09:51:15.385Z,16.5
2018-04-27T09:52:15.393Z,16.56
2018-04-27T09:53:15.453Z,16.62
2018-04-27T09:54:15.442Z,16.62
2018-04-27T09:55:15.450Z,16.75
2018-04-27T09:56:15.443Z,16.69
2018-04-27T09:57:15.436Z,16.75
2018-04-27T09:58:15.452Z,16.87
2018-04-27T09:59:15.434Z,16.87
2018-04-27T10:00:15.464Z,16.94
2018-04-27T10:01:15.438Z,16.94
2018-04-27T10:02:15.497Z,16.94
2018-04-27T10:03:15.450Z,16.94
2018-04-27T10:04:15.419Z,17
2018-04-27T10:05:15.476Z,17.06
2018-04-27T10:06:16.417Z,17.06
2018-04-27T10:07:15.415Z,17.06
2018-04-27T10:08:16.375Z,17.12
2018-04-27T10:09:15.399Z,17.12
2018-04-27T10:10:15.474Z,17.19
2018-04-27T10:11:16.573Z,17.19
2018-04-27T10:12:15.442Z,17.25
2018-04-27T10:13:15.428Z,17.25
2018-04-27T10:14:15.438Z,17.25
2018-04-27T10:15:15.498Z,17.31
2018-04-27T10:16:15.502Z,17.31
2018-04-27T10:17:15.440Z,17.37
2018-04-27T10:18:15.516Z,17.37
2018-04-27T10:19:15.450Z,17.44
2018-04-27T10:20:15.536Z,17.44
2018-04-27T10:21:15.441Z,17.44
2018-04-27T10:22:15.461Z,17.44
2018-04-27T10:23:15.444Z,17.44
2018-04-27T10:24:15.455Z,17.5
2018-04-27T10:25:15.433Z,17.5
2018-04-27T10:26:15.462Z,17.56
2018-04-27T10:27:15.438Z,17.56
2018-04-27T10:28:15.464Z,17.56
2018-04-27T10:29:15.435Z,17.62
2018-04-27T10:30:15.549Z,17.62
2018-04-27T10:31:15.471Z,17.69
2018-04-27T10:32:15.449Z,17.69
2018-04-27T10:42:25.919Z,17.94
2018-04-27T10:43:25.893Z,17.87
2018-04-27T10:44:25.943Z,17.94
2018-04-27T10:45:25.916Z,17.94
2018-04-27T10:46:25.931Z,18
2018-04-27T10:47:25.950Z,18
2018-04-27T10:48:25.922Z,18
2018-04-27T10:49:25.897Z,18
2018-04-27T10:50:25.995Z,18.06
2018-04-27T10:51:25.978Z,18.06
2018-04-27T10:52:25.922Z,18.06
2018-04-27T10:53:25.982Z,18
2018-04-27T10:54:25.947Z,18
2018-04-27T10:55:25.972Z,18
2018-04-27T10:56:25.957Z,18
2018-04-27T10:57:25.948Z,18.06
2018-04-27T10:58:25.967Z,18
2018-04-27T10:59:26.019Z,18.06
2018-04-27T11:00:26.130Z,18.06
2018-04-27T11:01:26.578Z,18.06
2018-04-27T11:02:25.982Z,18.12
2018-04-27T11:03:26.788Z,18.19
2018-04-27T11:04:25.950Z,18.12
2018-04-27T11:05:25.999Z,18.25
2018-04-27T11:06:25.959Z,18.25
2018-04-27T11:07:25.905Z,18.31
2018-04-27T11:08:25.989Z,18.25
2018-04-27T11:09:25.930Z,18.31
2018-04-27T11:10:26.212Z,18.25
2018-04-27T11:11:25.987Z,18.31
2018-04-27T11:12:25.965Z,18.31
2018-04-27T11:13:25.914Z,18.31
2018-04-27T11:14:25.943Z,18.31
2018-04-27T11:15:26.254Z,18.31
2018-04-27T11:16:25.927Z,18.37
2018-04-27T11:17:25.936Z,18.37
2018-04-27T11:18:25.927Z,18.5
2018-04-27T11:19:25.935Z,18.5
2018-04-27T11:20:25.959Z,18.56
2018-04-27T11:21:26.002Z,18.62
2018-04-27T11:22:26.339Z,18.62
2018-04-27T11:23:25.918Z,18.62
2018-04-27T11:24:25.946Z,18.62
2018-04-27T11:25:25.913Z,18.69
2018-04-27T11:26:25.949Z,18.75
2018-04-27T11:27:25.982Z,18.75
2018-04-27T11:28:25.950Z,18.81
2018-04-27T11:29:25.943Z,18.87
2018-04-27T11:30:25.974Z,18.94
2018-04-27T11:31:26.017Z,19
2018-04-27T11:32:26.026Z,19.06
2018-04-27T11:33:25.992Z,19.19
2018-04-27T11:34:25.947Z,19.19
2018-04-27T11:35:25.951Z,19.25
2018-04-27T11:36:26.019Z,19.25
2018-04-27T11:37:26.027Z,19.25
2018-04-27T11:38:25.972Z,19.25
2018-04-27T11:39:26.061Z,19.31
2018-04-27T11:40:26.016Z,19.31
2018-04-27T11:41:26.028Z,19.31
2018-04-27T11:42:25.991Z,19.37
2018-04-27T11:43:25.963Z,19.37
2018-04-27T11:44:26.003Z,19.44
2018-04-27T11:45:25.947Z,19.5
2018-04-27T11:46:25.930Z,19.5
2018-04-27T11:47:25.933Z,19.56
2018-04-27T11:48:25.939Z,19.56
2018-04-27T11:49:26.016Z,19.56
2018-04-27T11:50:25.962Z,19.56
2018-04-27T11:51:25.948Z,19.62
2018-04-27T11:52:25.968Z,19.62
2018-04-27T11:53:25.962Z,19.62
2018-04-27T11:54:26.019Z,19.56
2018-04-27T11:55:25.955Z,19.62
2018-04-27T11:56:25.997Z,19.62
2018-04-27T11:57:25.988Z,19.75
2018-04-27T11:58:25.960Z,19.75
2018-04-27T11:59:25.966Z,19.75
2018-04-27T12:00:26.057Z,19.81
2018-04-27T12:01:25.980Z,19.81
2018-04-27T12:02:26.242Z,19.94
2018-04-27T12:03:25.947Z,20
2018-04-27T12:04:26.126Z,20.06
2018-04-27T12:05:26.010Z,20.12
2018-04-27T12:06:25.946Z,20.19
2018-04-27T12:07:26.251Z,20.19
2018-04-27T12:09:25.956Z,20.31
2018-04-27T12:10:25.931Z,20.31
2018-04-27T12:11:26.001Z,20.37
2018-04-27T12:12:26.000Z,20.37
2018-04-27T12:13:25.956Z,20.37
2018-04-27T12:14:26.053Z,20.44
2018-04-27T12:15:25.969Z,20.44
2018-04-27T12:16:26.148Z,20.44
2018-04-27T12:17:26.023Z,20.44
2018-04-27T12:18:26.112Z,20.44
2018-04-27T12:19:26.004Z,20.44
2018-04-27T12:20:26.001Z,20.44
2018-04-27T12:21:25.960Z,20.56
2018-04-27T12:22:26.138Z,20.56
2018-04-27T12:23:26.013Z,20.56
2018-04-27T12:24:27.037Z,20.62
2018-04-27T12:25:26.040Z,20.62
2018-04-27T12:26:26.005Z,20.62
2018-04-27T12:27:26.290Z,20.75
2018-04-27T12:28:26.098Z,20.69
2018-04-27T12:29:26.090Z,20.75
2018-04-27T12:30:26.027Z,20.75
2018-04-27T12:31:27.036Z,20.75
2018-04-27T12:32:26.048Z,20.75
2018-04-27T12:33:26.008Z,20.81
2018-04-27T12:34:26.036Z,20.81
2018-04-27T12:35:26.092Z,20.81
2018-04-27T12:36:25.992Z,20.81
2018-04-27T12:37:26.161Z,20.75
2018-04-27T12:38:25.963Z,20.69
2018-04-27T12:39:26.047Z,20.75
2018-04-27T12:40:26.088Z,20.81
2018-04-27T12:41:26.064Z,20.81
2018-04-27T12:42:26.026Z,20.81
2018-04-27T12:43:26.114Z,20.88
2018-04-27T12:44:26.037Z,20.81
2018-04-27T12:45:26.096Z,20.88
2018-04-27T12:46:26.128Z,20.88
2018-04-27T12:47:25.996Z,20.94
2018-04-27T12:48:26.307Z,20.94
2018-04-27T12:49:26.182Z,20.94
2018-04-27T12:50:26.008Z,21
2018-04-27T12:51:25.984Z,21.06
2018-04-27T12:52:25.973Z,21.06
2018-04-27T12:53:26.033Z,21.12
2018-04-27T12:54:26.024Z,21.12
2018-04-27T12:55:26.014Z,21.12
2018-04-27T12:56:26.203Z,21.19
2018-04-27T12:57:26.244Z,21.25
2018-04-27T12:58:26.007Z,21.25
2018-04-27T12:59:26.017Z,21.31
2018-04-27T13:00:26.002Z,21.37
2018-04-27T13:01:26.017Z,21.44
2018-04-27T13:02:26.012Z,21.5
2018-04-27T13:03:26.061Z,21.5
2018-04-27T13:04:26.023Z,21.56
2018-04-27T13:05:25.986Z,21.56
2018-04-27T13:06:26.017Z,21.56
2018-04-27T13:07:26.002Z,21.5
2018-04-27T13:08:26.011Z,21.5
2018-04-27T13:09:25.971Z,21.5
2018-04-27T13:10:25.977Z,21.56
2018-04-27T13:11:26.101Z,21.56
2018-04-27T13:12:26.097Z,21.37
2018-04-27T13:13:26.044Z,21.31
2018-04-27T13:14:26.063Z,21.37
2018-04-27T13:15:26.051Z,21.44
2018-04-27T13:16:26.129Z,21.5
2018-04-27T13:17:26.155Z,21.5